Time;durP1;ratioP1;P1;durP2;ratioP2;P2;SDS_P1;SDS_P2;PMS_P1;PMS_P2;Temp;Humidity;BMP_temperature;BMP_pressure;BME280_temperature;BME280_humidity;BME280_pressure;Samples;Min_cycle;Max_cycle;Signal;HPM_P1;HPM_P2
2021/12/22 00:00:13;;;;;;;1.63;0.77;;;;;;;16.58;68.79;100051.16;5031815;28;20080;-58
2021/12/22 00:02:48;;;;;;;8.38;1.65;;;;;;;16.62;69.59;100073.88;5032435;28;20052;-59
2021/12/22 00:05:18;;;;;;;0.93;0.68;;;;;;;16.64;69.64;100067.88;5031831;28;20045;-59
2021/12/22 00:07:47;;;;;;;1.92;1.42;;;;;;;16.62;69.83;100061.78;5031738;28;20134;-59
2021/12/22 00:10:14;;;;;;;5.38;1.60;;;;;;;16.59;69.70;100057.63;5031728;28;20057;-58
2021/12/22 00:12:41;;;;;;;3.03;1.42;;;;;;;16.63;69.93;100061.44;5031580;28;20134;-58
2021/12/22 00:15:09;;;;;;;3.63;1.95;;;;;;;16.62;70.34;100056.97;5038644;28;20045;-60
2021/12/22 00:17:36;;;;;;;6.18;1.85;;;;;;;16.58;70.08;100053.13;5051540;28;20080;-59
2021/12/22 00:20:04;;;;;;;3.05;1.38;;;;;;;16.52;70.61;100049.66;5050874;28;20055;-59
2021/12/22 00:22:31;;;;;;;4.45;1.25;;;;;;;16.54;70.54;100055.78;5036280;28;20092;-58
2021/12/22 00:24:58;;;;;;;4.30;1.67;;;;;;;16.61;70.84;100060.91;5014281;28;20507;-59
2021/12/22 00:27:25;;;;;;;4.45;2.28;;;;;;;16.56;71.18;100059.09;5043730;28;20112;-59
2021/12/22 00:29:53;;;;;;;3.70;1.30;;;;;;;16.62;70.98;100073.88;5031774;28;20550;-58
2021/12/22 00:32:21;;;;;;;6.72;1.90;;;;;;;16.56;71.15;100064.75;5035616;28;20136;-59
2021/12/22 00:34:52;;;;;;;5.15;1.80;;;;;;;16.50;71.53;100063.25;5035354;28;20405;-59
2021/12/22 00:37:22;;;;;;;3.03;1.85;;;;;;;16.46;71.41;100059.44;5035865;28;20120;-59
2021/12/22 00:39:50;;;;;;;5.25;2.03;;;;;;;16.35;71.55;100058.94;5035472;28;20049;-59
2021/12/22 00:42:17;;;;;;;3.85;1.80;;;;;;;16.37;71.33;100050.16;5035276;28;20072;-59
2021/12/22 00:44:49;;;;;;;3.63;1.73;;;;;;;16.35;71.71;100044.88;5042293;28;20083;-59
2021/12/22 00:47:34;;;;;;;4.18;1.75;;;;;;;16.23;71.98;100041.88;5055074;28;20124;-58
2021/12/22 00:50:04;;;;;;;3.63;2.47;;;;;;;16.24;71.42;100045.50;5055097;28;20040;-59
2021/12/22 00:52:31;;;;;;;2.42;1.13;;;;;;;15.99;71.42;100017.00;5039424;28;20459;-59
2021/12/22 00:54:58;;;;;;;4.65;1.58;;;;;;;16.17;71.70;100051.66;5035412;28;20132;-59
2021/12/22 00:57:25;;;;;;;7.60;1.52;;;;;;;16.19;71.42;100054.97;5042834;28;20084;-58
2021/12/22 00:59:52;;;;;;;3.72;1.73;;;;;;;16.19;71.41;100037.22;5044756;28;20085;-59
2021/12/22 01:02:20;;;;;;;2.45;1.50;;;;;;;16.11;71.44;100024.81;5034505;28;20087;-59
2021/12/22 01:04:48;;;;;;;3.35;1.77;;;;;;;16.18;71.56;100041.22;5034620;28;20049;-58
2021/12/22 01:07:16;;;;;;;4.32;1.95;;;;;;;16.13;71.53;100044.19;5034705;28;20107;-59
2021/12/22 01:09:43;;;;;;;3.50;2.00;;;;;;;16.09;71.68;100044.00;5035186;28;20081;-59
2021/12/22 01:12:11;;;;;;;3.90;1.75;;;;;;;16.08;71.57;100054.47;5034466;28;20132;-59
2021/12/22 01:14:39;;;;;;;4.32;1.80;;;;;;;16.05;71.38;100059.94;5039187;28;20132;-58
2021/12/22 01:17:10;;;;;;;4.10;2.28;;;;;;;16.02;71.19;100060.56;5037125;28;20167;-60
2021/12/22 01:20:24;;;;;;;5.32;1.67;;;;;;;16.00;71.54;100068.50;5052854;28;20041;-59
2021/12/22 01:23:10;;;;;;;2.97;1.60;;;;;;;16.05;71.70;100071.19;5053520;28;20052;-59
2021/12/22 01:25:22;;;;;;;5.88;2.38;;;;;;;16.07;71.62;100057.63;5036258;28;20577;-58
2021/12/22 01:27:49;;;;;;;4.72;1.48;;;;;;;16.09;71.77;100063.72;5036117;28;20085;-60
2021/12/22 01:30:23;;;;;;;4.80;2.10;;;;;;;16.09;72.33;100060.91;5034180;28;20136;-59
2021/12/22 01:32:53;;;;;;;9.20;2.38;;;;;;;16.17;71.85;100062.94;5034104;28;20540;-60
2021/12/22 01:35:23;;;;;;;3.70;1.83;;;;;;;16.15;72.13;100047.50;5033826;28;20140;-59
2021/12/22 01:37:50;;;;;;;;;;;;;;;16.16;72.88;100058.44;5033419;28;20457;-59
2021/12/22 01:40:18;;;;;;;4.90;1.40;;;;;;;16.13;72.47;100061.91;5033705;28;20468;-57
2021/12/22 01:42:47;;;;;;;5.00;2.13;;;;;;;16.13;72.19;100055.44;5033732;28;20133;-58
2021/12/22 01:45:47;;;;;;;5.78;2.25;;;;;;;16.08;72.59;100056.44;5033613;28;20140;-58
2021/12/22 01:51:08;;;;;;;3.47;1.58;;;;;;;16.05;71.91;100060.75;5045366;28;20146;-58
2021/12/22 01:53:40;;;;;;;8.32;1.65;;;;;;;16.12;71.92;100054.63;5053645;28;20132;-58
2021/12/22 01:56:21;;;;;;;3.70;1.65;;;;;;;16.15;71.79;100070.88;5033662;28;20532;-58
2021/12/22 01:58:51;;;;;;;4.50;1.70;;;;;;;16.14;71.46;100074.00;5037391;28;20124;-58
2021/12/22 02:01:18;;;;;;;;;;;;;;;16.14;71.48;100074.00;5036473;28;20060;-58
2021/12/22 02:03:47;;;;;;;4.43;1.95;;;;;;;16.20;71.17;100084.78;5033725;28;19929;-58
2021/12/22 02:06:16;;;;;;;5.97;1.92;;;;;;;16.19;71.39;100087.94;5033449;28;20133;-59
2021/12/22 02:08:45;;;;;;;5.07;1.77;;;;;;;16.26;70.94;100091.09;5033435;28;20118;-59
2021/12/22 02:11:17;;;;;;;7.03;1.88;;;;;;;16.33;70.78;100085.78;5033246;28;20049;-58
2021/12/22 02:13:50;;;;;;;3.83;1.65;;;;;;;16.26;70.56;100082.63;5033192;28;20055;-59
2021/12/22 02:16:20;;;;;;;2.63;1.20;;;;;;;16.24;70.63;100102.72;5033441;28;20140;-58
2021/12/22 02:18:51;;;;;;;4.38;1.17;;;;;;;16.25;70.54;100093.09;5033979;28;20046;-59
2021/12/22 02:21:19;;;;;;;2.90;1.52;;;;;;;16.33;70.17;100100.72;5033192;28;20128;-59
2021/12/22 02:23:46;;;;;;;4.60;1.65;;;;;;;16.42;70.23;100114.81;5033247;28;20132;-59
2021/12/22 02:26:21;;;;;;;4.38;1.52;;;;;;;16.13;69.92;100084.44;5032966;28;20120;-59
2021/12/22 02:28:57;;;;;;;3.03;1.40;;;;;;;16.31;69.39;100125.59;5032908;28;20136;-59
2021/12/22 02:31:24;;;;;;;5.85;2.38;;;;;;;16.29;69.22;100122.25;5033054;28;20136;-58
2021/12/22 02:33:52;;;;;;;4.18;2.10;;;;;;;16.27;69.24;100109.66;5032782;28;20046;-58
2021/12/22 02:38:48;;;;;;;2.80;1.83;;;;;;;16.22;69.10;100110.66;5033112;28;20128;-58
2021/12/22 02:41:18;;;;;;;2.70;1.27;;;;;;;16.21;68.75;100123.09;5032818;28;20095;-58
2021/12/22 02:43:49;;;;;;;1.40;0.65;;;;;;;16.20;68.78;100132.66;5032840;28;20536;-58
2021/12/22 02:46:17;;;;;;;;;;;;;;;16.22;68.98;100132.38;5037118;28;20072;-58
2021/12/22 02:48:44;;;;;;;4.53;1.33;;;;;;;16.21;68.78;100133.53;5052674;28;19972;-58
2021/12/22 02:51:12;;;;;;;5.88;1.40;;;;;;;16.12;68.31;100147.59;5039930;28;20050;-58
2021/12/22 02:56:56;;;;;;;1.90;1.23;;;;;;;16.01;68.62;100132.16;5036909;28;20425;-58
2021/12/22 03:04:02;;;;;;;4.03;1.58;;;;;;;15.99;67.95;100117.56;5032508;28;20053;-60
2021/12/22 03:09:16;;;;;;;5.07;1.42;;;;;;;16.18;67.80;100140.66;5032994;28;20049;-59
2021/12/22 03:11:43;;;;;;;2.42;0.93;;;;;;;16.06;67.75;100141.25;5032437;28;20460;-59
2021/12/22 03:14:11;;;;;;;1.88;0.93;;;;;;;16.17;67.84;100119.28;5032229;28;20132;-59
2021/12/22 03:16:42;;;;;;;2.15;1.30;;;;;;;16.16;67.69;100137.31;5032307;28;20532;-59
2021/12/22 03:19:12;;;;;;;5.57;1.25;;;;;;;16.14;67.70;100135.97;5032490;28;20136;-59
2021/12/22 03:21:41;;;;;;;2.67;1.30;;;;;;;16.16;67.21;100145.75;5031806;28;20127;-60
2021/12/22 03:24:09;;;;;;;4.97;1.10;;;;;;;16.15;67.49;100146.94;5032236;28;20077;-59
2021/12/22 03:26:41;;;;;;;4.57;1.30;;;;;;;16.18;67.15;100143.47;5032437;28;20055;-59
2021/12/22 03:29:10;;;;;;;1.27;0.50;;;;;;;16.21;67.32;100153.25;5032531;28;20132;-59
2021/12/22 03:31:37;;;;;;;2.78;1.52;;;;;;;16.18;67.19;100142.63;5031905;28;20046;-59
2021/12/22 03:34:04;;;;;;;1.75;1.10;;;;;;;16.17;67.68;100113.63;5032419;28;20125;-59
2021/12/22 03:36:32;;;;;;;6.40;1.70;;;;;;;16.21;67.30;100151.25;5032407;28;20095;-59
2021/12/22 03:38:59;;;;;;;1.73;1.00;;;;;;;16.21;67.17;100158.88;5046436;28;20179;-59
2021/12/22 03:41:26;;;;;;;2.58;1.25;;;;;;;16.17;67.43;100146.59;5031881;28;20242;-57
2021/12/22 03:43:53;;;;;;;2.78;0.80;;;;;;;16.18;67.62;100157.53;5032984;28;20084;-59
2021/12/22 03:46:21;;;;;;;2.55;1.10;;;;;;;16.22;67.18;100143.63;5032430;28;20124;-58
2021/12/22 03:48:47;;;;;;;4.32;2.33;;;;;;;16.25;67.47;100166.34;5031987;28;20489;-58
2021/12/22 03:51:19;;;;;;;4.38;1.55;;;;;;;16.22;67.29;100138.81;5031942;28;20496;-58
2021/12/22 03:53:46;;;;;;;4.15;1.50;;;;;;;16.25;67.26;100157.88;5031468;28;20100;-58
2021/12/22 03:56:13;;;;;;;2.05;1.35;;;;;;;16.16;67.55;100139.31;5032309;28;20073;-58
2021/12/22 03:58:40;;;;;;;3.75;1.25;;;;;;;16.18;67.41;100154.72;5033352;28;20129;-58
2021/12/22 04:01:07;;;;;;;6.70;1.70;;;;;;;16.13;67.67;100149.22;5044902;28;20037;-58
2021/12/22 04:03:36;;;;;;;5.28;1.55;;;;;;;16.11;67.68;100137.47;5038894;28;20558;-58
2021/12/22 04:06:04;;;;;;;5.90;1.30;;;;;;;16.12;67.92;100136.31;5035552;28;20132;-58
2021/12/22 04:08:31;;;;;;;1.85;1.00;;;;;;;15.96;67.66;100137.91;5035631;28;20041;-58
2021/12/22 04:10:58;;;;;;;2.88;0.90;;;;;;;16.01;67.81;100144.25;5035608;28;20046;-58
2021/12/22 04:13:25;;;;;;;2.55;1.23;;;;;;;16.10;67.88;100158.34;5035577;28;20535;-58
2021/12/22 04:15:52;;;;;;;2.38;1.17;;;;;;;15.91;67.74;100138.09;5035821;28;20464;-58
2021/12/22 04:18:19;;;;;;;1.02;0.55;;;;;;;15.90;67.96;100134.44;5035879;28;20125;-58
2021/12/22 04:20:46;;;;;;;6.13;1.33;;;;;;;15.87;67.97;100149.19;5035463;28;20133;-59
2021/12/22 04:23:13;;;;;;;4.20;1.20;;;;;;;15.88;67.82;100148.84;5035412;28;20413;-58
2021/12/22 04:25:40;;;;;;;1.50;0.80;;;;;;;15.86;67.63;100145.53;5035472;28;20164;-60
2021/12/22 04:28:09;;;;;;;6.07;1.50;;;;;;;15.56;67.96;100106.97;5049782;28;20144;-58
2021/12/22 04:30:42;;;;;;;2.10;0.75;;;;;;;15.67;68.03;100144.13;5055416;28;20131;-58
2021/12/22 04:33:09;;;;;;;3.03;0.65;;;;;;;15.52;68.67;100134.94;5055307;28;20127;-59
2021/12/22 04:35:36;;;;;;;3.05;1.33;;;;;;;15.60;68.27;100153.00;5039076;28;20045;-58
2021/12/22 04:38:03;;;;;;;0.93;0.60;;;;;;;15.32;68.97;100149.56;5035190;28;20533;-58
2021/12/22 04:40:30;;;;;;;3.42;1.08;;;;;;;15.41;69.21;100147.59;5034993;28;20523;-58
2021/12/22 04:42:57;;;;;;;4.35;1.50;;;;;;;15.41;69.06;100142.78;5040394;28;20434;-58
2021/12/22 04:45:24;;;;;;;2.00;1.00;;;;;;;15.30;69.85;100163.09;5054940;28;20128;-58
2021/12/22 04:47:51;;;;;;;4.63;1.13;;;;;;;15.18;70.38;100146.81;5045853;28;20128;-59
2021/12/22 04:50:20;;;;;;;5.90;1.67;;;;;;;15.18;70.58;100138.38;5034902;28;20141;-58
2021/12/22 04:52:58;;;;;;;5.93;0.87;;;;;;;15.03;70.75;100119.09;5035773;28;20160;-58
2021/12/22 04:55:26;;;;;;;2.30;1.60;;;;;;;15.11;70.78;100138.00;5054551;28;20489;-58
2021/12/22 04:57:55;;;;;;;3.65;2.00;;;;;;;15.16;70.61;100137.88;5054666;28;20088;-58
2021/12/22 05:00:26;;;;;;;2.92;1.33;;;;;;;15.24;70.54;100153.97;5053409;28;20132;-58
2021/12/22 05:02:55;;;;;;;3.10;0.97;;;;;;;15.15;70.15;100141.84;5054955;28;20073;-58
2021/12/22 05:05:22;;;;;;;1.83;0.70;;;;;;;15.19;70.54;100150.47;5054029;28;20053;-58
2021/12/22 05:07:49;;;;;;;2.25;1.73;;;;;;;15.13;70.64;100146.94;5043841;28;20073;-58
2021/12/22 05:10:19;;;;;;;4.55;1.65;;;;;;;15.14;70.66;100138.22;5034533;28;20080;-58
2021/12/22 05:12:47;;;;;;;3.87;1.73;;;;;;;15.12;70.83;100148.94;5034579;28;20073;-58
2021/12/22 05:15:14;;;;;;;4.05;1.52;;;;;;;15.09;71.03;100157.19;5034308;28;20141;-58
2021/12/22 05:20:12;;;;;;;7.05;1.23;;;;;;;15.06;70.88;100147.41;5034448;28;20077;-58
2021/12/22 05:22:39;;;;;;;4.20;1.73;;;;;;;15.07;70.97;100163.09;5034254;28;20140;-58
2021/12/22 05:25:10;;;;;;;4.43;1.20;;;;;;;15.05;70.74;100150.53;5035011;28;20073;-58
2021/12/22 05:27:37;;;;;;;2.30;1.20;;;;;;;14.85;70.75;100118.97;5034213;28;20095;-58
2021/12/22 05:30:06;;;;;;;3.45;1.38;;;;;;;15.00;70.82;100151.47;5034304;28;20136;-57
2021/12/22 05:32:34;;;;;;;3.20;1.20;;;;;;;15.01;71.11;100155.13;5034173;28;20136;-58
2021/12/22 05:35:05;;;;;;;1.85;0.88;;;;;;;14.99;71.47;100161.09;5033999;28;20125;-58
2021/12/22 05:37:32;;;;;;;3.33;1.10;;;;;;;15.04;71.09;100163.78;5034184;28;20045;-58
2021/12/22 05:40:01;;;;;;;5.07;1.77;;;;;;;14.99;70.89;100146.19;5034188;28;20476;-58
2021/12/22 05:42:27;;;;;;;14.83;1.93;;;;;;;15.07;70.74;100162.28;5034483;28;20137;-58
2021/12/22 05:44:54;;;;;;;2.80;1.73;;;;;;;15.02;70.92;100168.06;5034447;28;20119;-58
2021/12/22 05:47:23;;;;;;;8.50;1.30;;;;;;;14.99;71.21;100161.09;5033654;28;20059;-58
2021/12/22 05:49:50;;;;;;;7.95;1.42;;;;;;;14.92;70.76;100146.66;5034142;28;20354;-59
2021/12/22 05:52:17;;;;;;;3.53;1.10;;;;;;;14.86;71.00;100157.16;5033991;28;20098;-59
2021/12/22 05:54:45;;;;;;;2.97;1.37;;;;;;;14.90;71.04;100171.41;5048179;28;20153;-59
2021/12/22 05:57:13;;;;;;;4.20;1.60;;;;;;;14.76;71.14;100151.81;5054091;28;20135;-58
2021/12/22 05:59:39;;;;;;;2.37;0.70;;;;;;;14.72;71.33;100172.44;5045345;28;20144;-59
2021/12/22 06:02:07;;;;;;;4.53;1.48;;;;;;;14.74;71.15;100185.03;5033913;28;20129;-60
2021/12/22 06:04:34;;;;;;;3.85;1.20;;;;;;;14.83;70.79;100183.09;5033615;28;20060;-61
2021/12/22 06:07:00;;;;;;;1.63;0.88;;;;;;;14.72;71.31;100181.69;5033426;28;20557;-60
2021/12/22 06:09:30;;;;;;;11.35;1.75;;;;;;;14.54;70.70;100151.78;5048976;28;20045;-59
2021/12/22 06:11:58;;;;;;;1.83;1.70;;;;;;;14.67;71.08;100176.22;5053217;28;20080;-58
2021/12/22 06:14:24;;;;;;;3.53;1.17;;;;;;;14.67;70.98;100170.59;5053125;28;20139;-58
2021/12/22 06:16:54;;;;;;;2.58;1.25;;;;;;;14.63;70.88;100178.84;5042014;28;20076;-62
2021/12/22 06:19:21;;;;;;;3.43;1.00;;;;;;;14.63;70.81;100183.59;5033264;28;20632;-58
2021/12/22 06:21:49;;;;;;;0.90;0.70;;;;;;;14.71;70.65;100180.03;5032062;28;20049;-58
2021/12/22 06:24:17;;;;;;;3.20;1.43;;;;;;;14.69;70.61;100171.09;5033524;28;20071;-58
2021/12/22 06:26:44;;;;;;;1.30;0.97;;;;;;;14.68;70.45;100180.69;5032700;28;20136;-60
2021/12/22 06:29:11;;;;;;;0.93;0.63;;;;;;;14.61;70.47;100183.91;5032180;28;20641;-58
2021/12/22 06:31:38;;;;;;;3.33;1.00;;;;;;;14.57;70.68;100174.47;5032941;28;20050;-59
2021/12/22 06:34:05;;;;;;;5.17;1.67;;;;;;;14.70;70.19;100198.06;5033781;28;20045;-58
2021/12/22 06:36:33;;;;;;;2.50;0.90;;;;;;;14.28;70.40;100141.09;5033235;28;20053;-57
2021/12/22 06:39:00;;;;;;;1.33;0.73;;;;;;;14.58;70.72;100197.78;5039735;28;20564;-58
2021/12/22 06:41:30;;;;;;;3.30;0.90;;;;;;;14.54;70.39;100193.94;5052651;28;20052;-58
2021/12/22 06:43:57;;;;;;;4.50;1.17;;;;;;;14.64;70.18;100202.13;5053212;28;20127;-58
2021/12/22 06:46:25;;;;;;;6.63;1.23;;;;;;;14.62;70.19;100194.00;5050184;28;20083;-58
2021/12/22 06:48:52;;;;;;;6.50;1.00;;;;;;;14.66;70.14;100211.06;5032689;28;20057;-58
2021/12/22 06:51:19;;;;;;;2.37;1.27;;;;;;;14.60;69.86;100206.72;5033191;28;20513;-59
2021/12/22 06:53:46;;;;;;;2.77;1.33;;;;;;;14.62;69.93;100221.28;5034484;28;20547;-59
2021/12/22 06:56:13;;;;;;;2.10;0.90;;;;;;;14.48;69.67;100206.41;5052508;28;20177;-59
2021/12/22 06:58:40;;;;;;;2.20;1.03;;;;;;;14.55;69.83;100226.50;5052484;28;20468;-59
2021/12/22 07:01:07;;;;;;;1.47;1.30;;;;;;;14.50;69.88;100226.59;5052342;28;20080;-59
2021/12/22 07:03:34;;;;;;;2.43;0.93;;;;;;;14.58;69.67;100223.88;5040875;28;20049;-59
2021/12/22 07:06:01;;;;;;;5.47;0.70;;;;;;;14.50;69.52;100235.03;5032479;28;20141;-59
2021/12/22 07:08:29;;;;;;;4.55;1.38;;;;;;;14.54;69.56;100238.91;5032397;28;20049;-60
2021/12/22 07:10:56;;;;;;;7.13;1.33;;;;;;;14.57;69.21;100236.28;5032287;28;20136;-59
2021/12/22 07:13:23;;;;;;;1.00;0.73;;;;;;;14.50;69.22;100237.84;5032423;28;20136;-59
2021/12/22 07:15:51;;;;;;;6.50;1.33;;;;;;;14.60;68.90;100240.47;5049070;28;20483;-59
2021/12/22 07:18:18;;;;;;;2.67;0.80;;;;;;;14.51;69.04;100233.91;5052279;28;20081;-59
2021/12/22 07:20:45;;;;;;;2.23;1.27;;;;;;;14.44;69.08;100225.88;5034945;28;20048;-59
2021/12/22 07:23:12;;;;;;;3.07;1.20;;;;;;;14.48;69.05;100242.94;5032554;28;20132;-59
2021/12/22 07:25:38;;;;;;;3.50;0.93;;;;;;;14.40;69.00;100239.72;5032963;28;20046;-60
2021/12/22 07:28:08;;;;;;;1.87;0.93;;;;;;;14.30;69.04;100225.88;5031921;28;20091;-58
2021/12/22 07:30:37;;;;;;;1.60;1.17;;;;;;;14.30;69.14;100225.06;5031173;28;20450;-59
2021/12/22 07:33:04;;;;;;;3.20;0.80;;;;;;;14.29;69.29;100240.22;5032080;28;20091;-59
2021/12/22 07:35:42;;;;;;;5.43;1.30;;;;;;;14.27;69.30;100236.91;5043105;28;20055;-58
2021/12/22 07:38:22;;;;;;;8.23;1.27;;;;;;;14.22;69.38;100237.84;5051991;28;20571;-59
2021/12/22 07:40:49;;;;;;;5.82;1.08;;;;;;;14.22;69.23;100232.22;5048245;28;20168;-59
2021/12/22 07:43:16;;;;;;;2.93;1.40;;;;;;;14.10;69.59;100238.38;5032187;28;20081;-59
2021/12/22 07:45:43;;;;;;;2.47;0.60;;;;;;;14.01;69.83;100243.03;5031840;28;20573;-59
2021/12/22 07:48:10;;;;;;;4.47;1.53;;;;;;;13.96;69.92;100241.19;5032166;28;20067;-59
2021/12/22 07:50:37;;;;;;;3.97;1.10;;;;;;;14.03;69.79;100242.75;5032137;28;20436;-60
2021/12/22 07:53:04;;;;;;;0.40;0.40;;;;;;;14.13;69.39;100239.72;5032427;28;20128;-59
2021/12/22 07:55:31;;;;;;;3.78;1.30;;;;;;;13.94;69.43;100228.59;5033450;28;20050;-59
2021/12/22 07:57:59;;;;;;;2.77;2.17;;;;;;;14.09;69.30;100245.13;5032050;28;20405;-59
2021/12/22 08:00:26;;;;;;;4.60;1.17;;;;;;;13.99;69.62;100248.16;5031437;28;20092;-59
2021/12/22 08:02:52;;;;;;;2.07;0.23;;;;;;;13.86;69.88;100249.78;5031743;28;20561;-58
2021/12/22 08:05:39;;;;;;;2.40;0.90;;;;;;;13.78;69.99;100235.63;5036905;28;20049;-59
2021/12/22 08:08:06;;;;;;;8.27;1.13;;;;;;;13.78;70.21;100246.84;5051946;28;20068;-60
2021/12/22 08:10:36;;;;;;;2.53;0.73;;;;;;;13.88;69.81;100255.94;5051753;28;20404;-58
2021/12/22 08:13:03;;;;;;;0.93;0.87;;;;;;;13.87;69.86;100251.44;5046945;28;20922;-58
2021/12/22 08:15:30;;;;;;;0.90;0.83;;;;;;;13.84;70.02;100257.69;5032049;28;20573;-58
2021/12/22 08:17:57;;;;;;;1.70;1.00;;;;;;;13.82;70.09;100259.16;5030458;28;20592;-58
2021/12/22 08:20:24;;;;;;;0.83;0.73;;;;;;;13.95;69.59;100255.53;5043190;28;20128;-58
2021/12/22 08:22:51;;;;;;;3.17;0.80;;;;;;;14.03;69.42;100249.19;5048406;28;20045;-57
2021/12/22 08:25:19;;;;;;;1.08;1.08;;;;;;;14.23;69.05;100267.59;5050035;28;20079;-58
2021/12/22 08:27:46;;;;;;;3.97;1.63;;;;;;;14.32;68.92;100259.28;5051123;28;20093;-58
2021/12/22 08:30:13;;;;;;;3.27;1.60;;;;;;;14.55;68.80;100279.91;5045631;28;20076;-58
2021/12/22 08:32:41;;;;;;;6.60;1.83;;;;;;;14.69;68.08;100263.84;5031871;28;20160;-58
2021/12/22 08:35:11;;;;;;;3.38;0.95;;;;;;;14.73;67.79;100264.88;5031422;28;20049;-58
2021/12/22 08:40:25;;;;;;;4.43;0.95;;;;;;;14.92;67.15;100276.81;5031480;28;20011;-58
2021/12/22 08:42:52;;;;;;;3.70;1.52;;;;;;;15.17;66.94;100278.16;5031489;28;20084;-58
2021/12/22 08:45:19;;;;;;;6.93;1.60;;;;;;;15.26;66.28;100274.63;5034148;28;20148;-58
2021/12/22 08:47:47;;;;;;;2.50;1.02;;;;;;;15.55;65.80;100274.16;5031585;28;20128;-58
2021/12/22 08:50:16;;;;;;;7.65;1.90;;;;;;;15.55;65.46;100272.16;5031900;28;20137;-58
2021/12/22 08:52:42;;;;;;;1.50;1.02;;;;;;;15.76;65.04;100271.66;5034298;28;20128;-58
2021/12/22 08:55:10;;;;;;;6.80;1.55;;;;;;;16.08;64.53;100291.06;5034971;28;20056;-58
2021/12/22 08:57:38;;;;;;;1.70;1.05;;;;;;;16.34;64.04;100282.72;5035081;28;20081;-58
2021/12/22 09:00:09;;;;;;;4.97;1.27;;;;;;;16.70;63.47;100289.31;5034936;28;20473;-58
2021/12/22 09:02:38;;;;;;;3.35;1.85;;;;;;;17.07;62.39;100289.88;5034796;28;20128;-57
2021/12/22 09:05:08;;;;;;;7.47;1.23;;;;;;;17.33;61.62;100307.63;5034640;28;20493;-58
2021/12/22 09:07:35;;;;;;;3.65;1.23;;;;;;;17.68;60.67;100307.66;5035292;28;20457;-58
2021/12/22 09:10:03;;;;;;;3.92;1.30;;;;;;;18.08;60.10;100294.09;5034488;28;20072;-58
2021/12/22 09:12:30;;;;;;;3.88;1.48;;;;;;;18.69;59.31;100320.09;5034595;28;20468;-57
2021/12/22 09:14:57;;;;;;;4.10;1.70;;;;;;;18.83;57.92;100307.75;5048314;28;20133;-58
2021/12/22 09:17:24;;;;;;;1.27;1.00;;;;;;;18.97;56.77;100328.13;5047702;28;20065;-58
2021/12/22 09:19:53;;;;;;;4.35;1.60;;;;;;;19.29;56.20;100318.09;5034634;28;20461;-57
2021/12/22 09:22:21;;;;;;;3.08;1.05;;;;;;;19.53;55.37;100325.06;5034254;28;20053;-58
2021/12/22 09:24:48;;;;;;;8.60;1.88;;;;;;;19.77;54.06;100336.53;5041318;28;20132;-59
2021/12/22 09:27:15;;;;;;;4.68;1.88;;;;;;;20.36;53.84;100336.22;5053758;28;20152;-58
2021/12/22 09:29:42;;;;;;;1.70;0.60;;;;;;;20.81;53.38;100349.53;5054107;28;20072;-58
2021/12/22 09:32:14;;;;;;;6.45;1.27;;;;;;;20.00;52.42;100336.97;5034223;28;20046;-58
2021/12/22 09:34:42;;;;;;;3.08;1.42;;;;;;;19.50;52.91;100314.44;5034137;28;20077;-58
2021/12/22 09:37:09;;;;;;;1.38;0.65;;;;;;;18.77;53.58;100343.91;5034031;28;20144;-58
2021/12/22 09:39:36;;;;;;;3.45;1.60;;;;;;;18.81;54.12;100355.38;5046328;28;20080;-58
2021/12/22 09:42:04;;;;;;;3.58;1.90;;;;;;;19.21;53.41;100332.31;5033989;28;20045;-58
2021/12/22 09:44:33;;;;;;;1.38;0.95;;;;;;;19.70;52.50;100338.28;5033483;28;20128;-58
2021/12/22 09:47:00;;;;;;;2.03;1.30;;;;;;;20.01;52.02;100347.13;5033687;28;20047;-58
2021/12/22 09:52:21;;;;;;;3.60;1.50;;;;;;;20.71;49.89;100332.16;5033774;28;20453;-57
2021/12/22 09:54:55;;;;;;;3.03;1.70;;;;;;;21.17;49.54;100347.03;5033259;28;20041;-58
2021/12/22 09:57:24;;;;;;;1.98;1.40;;;;;;;21.59;48.99;100341.03;5033351;28;20145;-58
2021/12/22 09:59:53;;;;;;;2.03;1.33;;;;;;;21.62;48.27;100337.47;5033641;28;20136;-58
2021/12/22 10:02:22;;;;;;;7.50;2.20;;;;;;;21.53;47.41;100337.63;5033516;28;20133;-58
2021/12/22 10:04:53;;;;;;;1.40;1.17;;;;;;;21.27;47.81;100341.69;5033679;28;20046;-58
2021/12/22 10:07:25;;;;;;;3.65;1.48;;;;;;;21.17;48.16;100318.63;5033257;28;20140;-58
2021/12/22 10:09:53;;;;;;;3.78;1.40;;;;;;;21.07;47.43;100339.81;5033555;28;20140;-58
2021/12/22 10:12:24;;;;;;;5.85;1.45;;;;;;;20.89;47.48;100344.06;5033453;28;20092;-58
2021/12/22 10:14:54;;;;;;;6.68;1.20;;;;;;;21.10;48.03;100344.78;5033783;28;20080;-58
2021/12/22 10:17:30;;;;;;;4.28;1.65;;;;;;;21.33;47.70;100345.09;5033270;28;20080;-57
2021/12/22 10:20:02;;;;;;;3.58;2.00;;;;;;;21.46;46.81;100338.22;5033155;28;20163;-57
2021/12/22 10:22:34;;;;;;;2.63;1.63;;;;;;;21.56;46.65;100336.06;5043307;28;20128;-58
2021/12/22 10:25:08;;;;;;;;;;;;;;;20.85;46.79;100341.13;5033871;28;20224;-58
2021/12/22 10:27:35;;;;;;;1.92;1.35;;;;;;;20.99;46.72;100335.94;5032713;28;19921;-57
2021/12/22 10:30:26;;;;;;;3.10;1.60;;;;;;;21.28;46.64;100343.34;5041033;28;20049;-58
2021/12/22 10:33:15;;;;;;;4.10;1.90;;;;;;;21.78;46.33;100344.06;5049540;28;20068;-58
2021/12/22 10:35:48;;;;;;;3.28;1.48;;;;;;;21.47;45.59;100263.19;5040705;28;20156;-58
2021/12/22 10:38:19;;;;;;;4.22;1.50;;;;;;;22.09;44.51;100336.81;5032939;28;20139;-58
2021/12/22 10:40:51;;;;;;;1.65;1.30;;;;;;;21.76;44.51;100352.09;5032644;28;20121;-58
2021/12/22 10:43:23;;;;;;;2.35;1.50;;;;;;;21.84;45.02;100353.97;5031949;28;20132;-57
2021/12/22 10:45:53;;;;;;;4.00;1.27;;;;;;;21.98;44.59;100354.41;5032454;28;20136;-57
2021/12/22 10:51:19;;;;;;;2.28;1.52;;;;;;;21.68;44.51;100353.09;5032310;28;20076;-57
2021/12/22 10:53:49;;;;;;;4.00;1.80;;;;;;;21.20;45.33;100354.84;5039002;28;20041;-58
2021/12/22 10:56:23;;;;;;;3.90;1.98;;;;;;;21.02;45.13;100357.91;5046850;28;20049;-58
2021/12/22 10:59:19;;;;;;;2.40;1.02;;;;;;;20.59;46.23;100361.34;5032496;28;20124;-58
2021/12/22 11:01:49;;;;;;;2.17;0.88;;;;;;;20.27;46.40;100361.03;5031736;28;20472;-59
2021/12/22 11:04:22;;;;;;;2.20;1.27;;;;;;;19.56;47.57;100350.69;5033383;28;20049;-59
2021/12/22 11:06:52;;;;;;;6.95;2.10;;;;;;;19.45;47.78;100346.59;5051296;28;20136;-58
2021/12/22 11:09:24;;;;;;;4.97;1.60;;;;;;;19.33;48.27;100329.56;5052555;28;20045;-58
2021/12/22 11:11:57;;;;;;;1.75;1.05;;;;;;;19.03;48.93;100328.78;5052488;28;20103;-57
2021/12/22 11:14:53;;;;;;;8.30;1.35;;;;;;;18.91;49.34;100338.00;5041916;28;20076;-57
2021/12/22 11:17:21;;;;;;;4.85;2.08;;;;;;;19.12;49.46;100326.72;5031734;28;20137;-57
2021/12/22 11:19:56;;;;;;;9.18;1.20;;;;;;;18.96;49.63;100328.50;5046999;28;20525;-58
2021/12/22 11:23:04;;;;;;;5.20;1.40;;;;;;;18.76;49.91;100330.09;5032663;28;20133;-57
2021/12/22 11:25:31;;;;;;;2.45;0.90;;;;;;;19.11;50.10;100328.72;5032070;28;20515;-57
2021/12/22 11:27:59;;;;;;;4.05;2.10;;;;;;;19.11;50.12;100325.03;5031889;28;20157;-57
2021/12/22 11:30:27;;;;;;;2.58;1.50;;;;;;;19.70;49.34;100318.44;5032315;28;20049;-59
2021/12/22 11:32:55;;;;;;;9.98;1.70;;;;;;;19.77;49.11;100299.69;5042993;28;20409;-58
2021/12/22 11:35:23;;;;;;;4.93;2.15;;;;;;;19.87;48.93;100307.78;5050539;28;20128;-58
2021/12/22 11:37:50;;;;;;;3.58;1.48;;;;;;;19.76;49.04;100317.03;5051950;28;20135;-58
2021/12/22 11:40:18;;;;;;;2.10;1.30;;;;;;;19.62;49.27;100312.50;5038222;28;20065;-58
2021/12/22 11:42:45;;;;;;;2.72;1.17;;;;;;;19.51;49.31;100311.25;5032141;28;20100;-58
2021/12/22 11:45:21;;;;;;;1.73;1.08;;;;;;;19.84;48.71;100313.31;5032407;28;20516;-58
2021/12/22 11:47:56;;;;;;;3.58;2.28;;;;;;;20.26;47.73;100273.47;5032369;28;20140;-58
2021/12/22 11:50:28;;;;;;;1.83;1.35;;;;;;;20.96;46.20;100302.59;5030824;28;20050;-58
2021/12/22 11:53:08;;;;;;;2.05;1.40;;;;;;;20.85;46.53;100281.53;5051742;28;20128;-58
2021/12/22 11:55:39;;;;;;;;;;;;;;;21.61;45.74;100301.75;5035295;28;20085;-58
2021/12/22 11:58:19;;;;;;;3.88;1.02;;;;;;;21.70;45.26;100282.50;5034890;28;19925;-58
2021/12/22 12:00:58;;;;;;;1.45;1.15;;;;;;;21.18;45.46;100291.88;5051797;28;20421;-59
2021/12/22 12:03:36;;;;;;;2.20;1.40;;;;;;;21.54;45.16;100296.66;5051634;28;20053;-58